sensor_id;sensor_type;location;lat;lon;timestamp;pressure;altitude;pressure_sealevel;temperature;humidity
61676;BME280;47574;52.090;5.244;2022-12-07T00:02:03;101825.0;;;12.09;53.67
61676;BME280;47574;52.090;5.244;2022-12-07T00:03:40;101818.0;;;12.08;53.89
61676;BME280;47574;52.090;5.244;2022-12-07T00:05:17;101820.0;;;12.22;53.8
61676;BME280;47574;52.090;5.244;2022-12-07T00:06:53;101812.0;;;12.38;53.51
61676;BME280;47574;52.090;5.244;2022-12-07T00:10:07;101813.0;;;12.3;53.62
61676;BME280;47574;52.090;5.244;2022-12-07T00:11:48;101817.0;;;12.29;53.55
61676;BME280;47574;52.090;5.244;2022-12-07T00:13:25;101816.0;;;12.18;53.64
61676;BME280;47574;52.090;5.244;2022-12-07T00:16:39;101813.0;;;12.19;53.68
61676;BME280;47574;52.090;5.244;2022-12-07T00:18:15;101816.0;;;12.21;53.59
61676;BME280;47574;52.090;5.244;2022-12-07T00:19:52;101812.0;;;12.24;53.51
61676;BME280;47574;52.090;5.244;2022-12-07T00:21:30;101817.0;;;12.11;53.46
61676;BME280;47574;52.090;5.244;2022-12-07T00:24:43;101812.0;;;12.04;53.85
61676;BME280;47574;52.090;5.244;2022-12-07T00:26:21;101810.0;;;11.97;53.8
61676;BME280;47574;52.090;5.244;2022-12-07T00:27:58;101807.0;;;11.98;53.53
61676;BME280;47574;52.090;5.244;2022-12-07T00:31:11;101805.0;;;11.85;53.76
61676;BME280;47574;52.090;5.244;2022-12-07T00:32:48;101805.0;;;11.94;53.63
61676;BME280;47574;52.090;5.244;2022-12-07T00:34:24;101799.0;;;11.91;53.29
61676;BME280;47574;52.090;5.244;2022-12-07T00:37:39;101800.0;;;11.96;52.96
61676;BME280;47574;52.090;5.244;2022-12-07T00:39:15;101797.0;;;11.94;53.09
61676;BME280;47574;52.090;5.244;2022-12-07T00:40:55;101796.0;;;11.94;53.27
61676;BME280;47574;52.090;5.244;2022-12-07T00:42:32;101796.0;;;11.95;53.19
61676;BME280;47574;52.090;5.244;2022-12-07T00:45:44;101790.0;;;12.04;53.09
61676;BME280;47574;52.090;5.244;2022-12-07T00:47:21;101784.0;;;12.0;52.93
61676;BME280;47574;52.090;5.244;2022-12-07T00:48:57;101784.0;;;12.05;53.11
61676;BME280;47574;52.090;5.244;2022-12-07T00:52:09;101785.0;;;12.12;52.85
61676;BME280;47574;52.090;5.244;2022-12-07T00:53:45;101787.0;;;12.18;52.38
61676;BME280;47574;52.090;5.244;2022-12-07T00:55:22;101786.0;;;12.18;52.18
61676;BME280;47574;52.090;5.244;2022-12-07T00:56:59;101784.0;;;11.93;52.97
61676;BME280;47574;52.090;5.244;2022-12-07T01:00:11;101788.0;;;11.68;53.35
61676;BME280;47574;52.090;5.244;2022-12-07T01:01:48;101789.0;;;11.72;53.2
61676;BME280;47574;52.090;5.244;2022-12-07T01:03:24;101782.0;;;11.77;52.8
61676;BME280;47574;52.090;5.244;2022-12-07T01:06:38;101782.0;;;11.77;52.87
61676;BME280;47574;52.090;5.244;2022-12-07T01:08:14;101782.0;;;11.57;52.96
61676;BME280;47574;52.090;5.244;2022-12-07T01:09:50;101783.0;;;11.47;53.45
61676;BME280;47574;52.090;5.244;2022-12-07T01:13:05;101781.0;;;11.46;53.49
61676;BME280;47574;52.090;5.244;2022-12-07T01:14:41;101787.0;;;11.42;53.43
61676;BME280;47574;52.090;5.244;2022-12-07T01:16:19;101790.0;;;11.63;52.92
61676;BME280;47574;52.090;5.244;2022-12-07T01:17:56;101794.0;;;11.55;53.22
61676;BME280;47574;52.090;5.244;2022-12-07T01:21:11;101790.0;;;11.57;53.06
61676;BME280;47574;52.090;5.244;2022-12-07T01:22:47;101790.0;;;11.79;52.63
61676;BME280;47574;52.090;5.244;2022-12-07T01:24:23;101796.0;;;11.6;53.2
61676;BME280;47574;52.090;5.244;2022-12-07T01:27:39;101799.0;;;11.64;53.14
61676;BME280;47574;52.090;5.244;2022-12-07T01:29:15;101805.0;;;11.59;53.19
61676;BME280;47574;52.090;5.244;2022-12-07T01:30:56;101795.0;;;11.74;52.89
61676;BME280;47574;52.090;5.244;2022-12-07T01:32:33;101800.0;;;11.71;52.64
61676;BME280;47574;52.090;5.244;2022-12-07T01:35:46;101793.0;;;11.42;53.26
61676;BME280;47574;52.090;5.244;2022-12-07T01:37:22;101790.0;;;11.43;53.24
61676;BME280;47574;52.090;5.244;2022-12-07T01:38:59;101790.0;;;11.72;52.89
61676;BME280;47574;52.090;5.244;2022-12-07T01:42:12;101792.0;;;11.59;52.89
61676;BME280;47574;52.090;5.244;2022-12-07T01:44:22;101795.0;;;11.42;53.2
61676;BME280;47574;52.090;5.244;2022-12-07T01:45:59;101792.0;;;11.35;53.41
61676;BME280;47574;52.090;5.244;2022-12-07T01:47:39;101793.0;;;11.31;53.33
61676;BME280;47574;52.090;5.244;2022-12-07T01:49:23;101787.0;;;11.39;53.24
61676;BME280;47574;52.090;5.244;2022-12-07T01:52:45;101790.0;;;11.6;52.88
61676;BME280;47574;52.090;5.244;2022-12-07T01:54:25;101786.0;;;11.41;52.76
61676;BME280;47574;52.090;5.244;2022-12-07T01:56:02;101792.0;;;11.46;52.9
61676;BME280;47574;52.090;5.244;2022-12-07T01:57:42;101793.0;;;11.54;52.94
61676;BME280;47574;52.090;5.244;2022-12-07T02:00:59;101791.0;;;11.55;52.75
61676;BME280;47574;52.090;5.244;2022-12-07T02:02:38;101792.0;;;11.51;52.67
61676;BME280;47574;52.090;5.244;2022-12-07T02:04:18;101793.0;;;11.65;52.33
61676;BME280;47574;52.090;5.244;2022-12-07T02:07:36;101793.0;;;11.59;52.22
61676;BME280;47574;52.090;5.244;2022-12-07T02:09:14;101793.0;;;11.6;52.63
61676;BME280;47574;52.090;5.244;2022-12-07T02:10:51;101791.0;;;11.63;52.26
61676;BME280;47574;52.090;5.244;2022-12-07T02:12:27;101786.0;;;11.82;52.0
61676;BME280;47574;52.090;5.244;2022-12-07T02:15:51;101790.0;;;11.37;52.81
61676;BME280;47574;52.090;5.244;2022-12-07T02:17:46;101793.0;;;11.67;52.38
61676;BME280;47574;52.090;5.244;2022-12-07T02:19:52;101788.0;;;11.58;52.48
61676;BME280;47574;52.090;5.244;2022-12-07T02:22:22;101781.0;;;11.57;52.77
61676;BME280;47574;52.090;5.244;2022-12-07T02:24:47;101780.0;;;11.72;52.94
61676;BME280;47574;52.090;5.244;2022-12-07T02:27:07;101784.0;;;11.82;52.67
61676;BME280;47574;52.090;5.244;2022-12-07T02:29:32;101785.0;;;11.78;52.6
61676;BME280;47574;52.090;5.244;2022-12-07T02:31:17;101788.0;;;11.55;52.98
61676;BME280;47574;52.090;5.244;2022-12-07T02:34:44;101780.0;;;11.75;52.43
61676;BME280;47574;52.090;5.244;2022-12-07T02:36:27;101778.0;;;11.83;52.64
61676;BME280;47574;52.090;5.244;2022-12-07T02:38:13;101776.0;;;11.97;52.25
61676;BME280;47574;52.090;5.244;2022-12-07T02:39:55;101775.0;;;11.87;52.77
61676;BME280;47574;52.090;5.244;2022-12-07T02:41:37;101775.0;;;11.95;52.6
61676;BME280;47574;52.090;5.244;2022-12-07T02:45:00;101771.0;;;11.86;52.65
61676;BME280;47574;52.090;5.244;2022-12-07T02:46:42;101772.0;;;11.97;52.64
61676;BME280;47574;52.090;5.244;2022-12-07T02:48:20;101778.0;;;11.99;52.97
61676;BME280;47574;52.090;5.244;2022-12-07T02:49:57;101775.0;;;12.02;52.65
61676;BME280;47574;52.090;5.244;2022-12-07T02:53:46;101774.0;;;12.08;52.66
61676;BME280;47574;52.090;5.244;2022-12-07T02:55:27;101768.0;;;11.97;52.6
61676;BME280;47574;52.090;5.244;2022-12-07T02:57:15;101775.0;;;11.78;52.62
61676;BME280;47574;52.090;5.244;2022-12-07T02:59:07;101773.0;;;11.69;52.87
61676;BME280;47574;52.090;5.244;2022-12-07T03:01:03;101772.0;;;11.96;52.61
61676;BME280;47574;52.090;5.244;2022-12-07T03:02:50;101773.0;;;11.87;52.64
61676;BME280;47574;52.090;5.244;2022-12-07T03:06:22;101774.0;;;11.62;53.08
61676;BME280;47574;52.090;5.244;2022-12-07T03:08:11;101782.0;;;11.69;53.24
61676;BME280;47574;52.090;5.244;2022-12-07T03:09:55;101791.0;;;11.48;53.48
61676;BME280;47574;52.090;5.244;2022-12-07T03:11:41;101800.0;;;11.49;53.3
61676;BME280;47574;52.090;5.244;2022-12-07T03:13:24;101791.0;;;11.26;53.94
61676;BME280;47574;52.090;5.244;2022-12-07T03:15:10;101777.0;;;11.43;53.99
61676;BME280;47574;52.090;5.244;2022-12-07T03:18:34;101767.0;;;11.63;54.04
61676;BME280;47574;52.090;5.244;2022-12-07T03:20:17;101767.0;;;11.85;53.66
61676;BME280;47574;52.090;5.244;2022-12-07T03:22:00;101772.0;;;11.84;53.73
61676;BME280;47574;52.090;5.244;2022-12-07T03:23:40;101770.0;;;11.77;53.63
61676;BME280;47574;52.090;5.244;2022-12-07T03:27:02;101769.0;;;11.72;53.65
61676;BME280;47574;52.090;5.244;2022-12-07T03:28:50;101767.0;;;12.05;52.93
61676;BME280;47574;52.090;5.244;2022-12-07T03:30:33;101766.0;;;12.09;53.02
61676;BME280;47574;52.090;5.244;2022-12-07T03:32:16;101764.0;;;11.92;53.23
61676;BME280;47574;52.090;5.244;2022-12-07T03:34:11;101767.0;;;11.84;53.69
61676;BME280;47574;52.090;5.244;2022-12-07T03:37:39;101766.0;;;11.88;53.51
61676;BME280;47574;52.090;5.244;2022-12-07T03:39:23;101764.0;;;11.71;53.67
61676;BME280;47574;52.090;5.244;2022-12-07T03:41:05;101764.0;;;11.68;53.59
61676;BME280;47574;52.090;5.244;2022-12-07T03:42:46;101761.0;;;11.62;53.67
61676;BME280;47574;52.090;5.244;2022-12-07T03:44:23;101759.0;;;11.46;53.76
61676;BME280;47574;52.090;5.244;2022-12-07T03:47:54;101757.0;;;11.54;53.74
61676;BME280;47574;52.090;5.244;2022-12-07T03:49:43;101752.0;;;11.52;53.6
61676;BME280;47574;52.090;5.244;2022-12-07T03:51:25;101752.0;;;11.62;53.65
61676;BME280;47574;52.090;5.244;2022-12-07T03:53:08;101755.0;;;11.28;54.08
61676;BME280;47574;52.090;5.244;2022-12-07T03:54:50;101762.0;;;11.52;53.58
61676;BME280;47574;52.090;5.244;2022-12-07T03:58:14;101755.0;;;11.68;53.29
61676;BME280;47574;52.090;5.244;2022-12-07T03:59:54;101758.0;;;11.57;53.42
61676;BME280;47574;52.090;5.244;2022-12-07T04:01:31;101758.0;;;11.57;53.48
61676;BME280;47574;52.090;5.244;2022-12-07T04:04:45;101763.0;;;11.54;53.28
61676;BME280;47574;52.090;5.244;2022-12-07T04:06:21;101761.0;;;11.35;53.42
61676;BME280;47574;52.090;5.244;2022-12-07T04:07:57;101760.0;;;11.31;53.5
61676;BME280;47574;52.090;5.244;2022-12-07T04:09:33;101755.0;;;11.48;53.14
61676;BME280;47574;52.090;5.244;2022-12-07T04:12:47;101757.0;;;11.54;53.25
61676;BME280;47574;52.090;5.244;2022-12-07T04:14:23;101752.0;;;11.45;53.39
61676;BME280;47574;52.090;5.244;2022-12-07T04:15:59;101752.0;;;11.55;53.64
61676;BME280;47574;52.090;5.244;2022-12-07T04:19:13;101757.0;;;11.52;53.53
61676;BME280;47574;52.090;5.244;2022-12-07T04:20:50;101749.0;;;11.61;53.1
61676;BME280;47574;52.090;5.244;2022-12-07T04:22:25;101749.0;;;11.59;53.34
61676;BME280;47574;52.090;5.244;2022-12-07T04:25:40;101745.0;;;11.71;53.25
61676;BME280;47574;52.090;5.244;2022-12-07T04:27:16;101743.0;;;11.71;53.12
61676;BME280;47574;52.090;5.244;2022-12-07T04:28:52;101750.0;;;11.62;53.1
61676;BME280;47574;52.090;5.244;2022-12-07T04:30:28;101745.0;;;11.57;52.72
61676;BME280;47574;52.090;5.244;2022-12-07T04:33:41;101750.0;;;11.66;52.59
61676;BME280;47574;52.090;5.244;2022-12-07T04:35:17;101751.0;;;11.63;52.82
61676;BME280;47574;52.090;5.244;2022-12-07T04:36:53;101749.0;;;11.69;52.38
61676;BME280;47574;52.090;5.244;2022-12-07T04:40:07;101748.0;;;11.68;52.26
61676;BME280;47574;52.090;5.244;2022-12-07T04:41:45;101751.0;;;11.72;52.33
61676;BME280;47574;52.090;5.244;2022-12-07T04:43:21;101763.0;;;11.51;52.2
61676;BME280;47574;52.090;5.244;2022-12-07T04:46:33;101767.0;;;11.29;52.9
61676;BME280;47574;52.090;5.244;2022-12-07T04:48:09;101764.0;;;11.36;52.62
61676;BME280;47574;52.090;5.244;2022-12-07T04:49:45;101764.0;;;11.31;53.12
61676;BME280;47574;52.090;5.244;2022-12-07T04:51:23;101760.0;;;11.3;53.03
61676;BME280;47574;52.090;5.244;2022-12-07T04:54:37;101752.0;;;11.25;52.94
61676;BME280;47574;52.090;5.244;2022-12-07T04:56:14;101744.0;;;11.5;53.01
61676;BME280;47574;52.090;5.244;2022-12-07T04:57:51;101741.0;;;11.69;52.9
61676;BME280;47574;52.090;5.244;2022-12-07T05:01:03;101739.0;;;11.66;53.05
61676;BME280;47574;52.090;5.244;2022-12-07T05:02:39;101732.0;;;11.74;53.02
61676;BME280;47574;52.090;5.244;2022-12-07T05:04:16;101734.0;;;11.8;52.96
61676;BME280;47574;52.090;5.244;2022-12-07T05:07:28;101724.0;;;11.79;52.71
61676;BME280;47574;52.090;5.244;2022-12-07T05:09:05;101730.0;;;11.74;52.7
61676;BME280;47574;52.090;5.244;2022-12-07T05:10:42;101733.0;;;11.62;52.51
61676;BME280;47574;52.090;5.244;2022-12-07T05:12:18;101735.0;;;11.51;52.76
61676;BME280;47574;52.090;5.244;2022-12-07T05:15:31;101730.0;;;11.53;53.16
61676;BME280;47574;52.090;5.244;2022-12-07T05:17:07;101730.0;;;11.62;52.83
61676;BME280;47574;52.090;5.244;2022-12-07T05:18:43;101732.0;;;11.63;52.91
61676;BME280;47574;52.090;5.244;2022-12-07T05:21:56;101726.0;;;11.55;53.36
61676;BME280;47574;52.090;5.244;2022-12-07T05:23:32;101732.0;;;11.43;53.11
61676;BME280;47574;52.090;5.244;2022-12-07T05:25:09;101730.0;;;11.64;52.94
61676;BME280;47574;52.090;5.244;2022-12-07T05:28:22;101732.0;;;11.59;52.88
61676;BME280;47574;52.090;5.244;2022-12-07T05:29:58;101731.0;;;11.54;52.94
61676;BME280;47574;52.090;5.244;2022-12-07T05:31:34;101727.0;;;11.63;52.57
61676;BME280;47574;52.090;5.244;2022-12-07T05:33:10;101726.0;;;11.5;52.81
61676;BME280;47574;52.090;5.244;2022-12-07T05:36:23;101728.0;;;11.58;52.89
61676;BME280;47574;52.090;5.244;2022-12-07T05:37:59;101728.0;;;11.5;53.18
61676;BME280;47574;52.090;5.244;2022-12-07T05:39:35;101728.0;;;11.55;53.07
61676;BME280;47574;52.090;5.244;2022-12-07T05:43:48;101726.0;;;11.48;52.79
61676;BME280;47574;52.090;5.244;2022-12-07T05:47:00;101727.0;;;11.43;53.14
61676;BME280;47574;52.090;5.244;2022-12-07T05:48:36;101731.0;;;11.5;52.88
61676;BME280;47574;52.090;5.244;2022-12-07T05:50:12;101734.0;;;11.48;52.88
61676;BME280;47574;52.090;5.244;2022-12-07T05:53:25;101734.0;;;11.55;52.81
61676;BME280;47574;52.090;5.244;2022-12-07T05:55:01;101732.0;;;11.45;52.98
61676;BME280;47574;52.090;5.244;2022-12-07T05:56:37;101730.0;;;11.5;52.73
61676;BME280;47574;52.090;5.244;2022-12-07T05:59:30;101730.0;;;11.43;52.74
61676;BME280;47574;52.090;5.244;2022-12-07T06:01:06;101732.0;;;11.43;52.87
61676;BME280;47574;52.090;5.244;2022-12-07T06:02:43;101728.0;;;11.44;52.67
61676;BME280;47574;52.090;5.244;2022-12-07T06:05:56;101730.0;;;11.47;52.75
61676;BME280;47574;52.090;5.244;2022-12-07T06:07:32;101727.0;;;11.39;52.87
61676;BME280;47574;52.090;5.244;2022-12-07T06:09:08;101727.0;;;11.21;52.56
61676;BME280;47574;52.090;5.244;2022-12-07T06:12:39;101733.0;;;11.31;52.28
61676;BME280;47574;52.090;5.244;2022-12-07T06:14:16;101733.0;;;11.02;53.09
61676;BME280;47574;52.090;5.244;2022-12-07T06:15:52;101734.0;;;11.19;52.73
61676;BME280;47574;52.090;5.244;2022-12-07T06:17:28;101734.0;;;11.17;52.66
61676;BME280;47574;52.090;5.244;2022-12-07T06:20:40;101728.0;;;11.13;52.76
61676;BME280;47574;52.090;5.244;2022-12-07T06:22:17;101727.0;;;11.11;52.64
61676;BME280;47574;52.090;5.244;2022-12-07T06:23:54;101728.0;;;11.1;52.59
61676;BME280;47574;52.090;5.244;2022-12-07T06:25:30;101730.0;;;11.02;52.93
61676;BME280;47574;52.090;5.244;2022-12-07T06:28:43;101733.0;;;11.05;53.08
61676;BME280;47574;52.090;5.244;2022-12-07T06:30:19;101730.0;;;11.14;53.11
61676;BME280;47574;52.090;5.244;2022-12-07T06:31:56;101730.0;;;11.14;52.94
61676;BME280;47574;52.090;5.244;2022-12-07T06:35:08;101733.0;;;11.18;52.91
61676;BME280;47574;52.090;5.244;2022-12-07T06:36:46;101737.0;;;11.21;52.57
61676;BME280;47574;52.090;5.244;2022-12-07T06:38:23;101738.0;;;11.17;52.76
61676;BME280;47574;52.090;5.244;2022-12-07T06:41:37;101737.0;;;11.09;52.33
61676;BME280;47574;52.090;5.244;2022-12-07T06:43:13;101738.0;;;10.88;53.26
61676;BME280;47574;52.090;5.244;2022-12-07T06:44:50;101738.0;;;11.12;52.68
61676;BME280;47574;52.090;5.244;2022-12-07T06:46:26;101738.0;;;11.13;52.39
61676;BME280;47574;52.090;5.244;2022-12-07T06:49:39;101733.0;;;11.03;52.74
61676;BME280;47574;52.090;5.244;2022-12-07T06:51:15;101735.0;;;11.15;52.6
61676;BME280;47574;52.090;5.244;2022-12-07T06:52:52;101736.0;;;11.31;52.16
61676;BME280;47574;52.090;5.244;2022-12-07T06:56:07;101730.0;;;11.14;52.69
61676;BME280;47574;52.090;5.244;2022-12-07T06:57:43;101730.0;;;11.04;52.66
61676;BME280;47574;52.090;5.244;2022-12-07T06:59:20;101735.0;;;11.11;52.45
61676;BME280;47574;52.090;5.244;2022-12-07T07:02:33;101727.0;;;10.98;52.95
61676;BME280;47574;52.090;5.244;2022-12-07T07:04:09;101728.0;;;10.82;53.22
61676;BME280;47574;52.090;5.244;2022-12-07T07:05:46;101730.0;;;10.7;53.39
61676;BME280;47574;52.090;5.244;2022-12-07T07:07:21;101743.0;;;10.63;53.66
61676;BME280;47574;52.090;5.244;2022-12-07T07:10:34;101737.0;;;10.69;53.57
61676;BME280;47574;52.090;5.244;2022-12-07T07:12:11;101734.0;;;10.98;53.29
61676;BME280;47574;52.090;5.244;2022-12-07T07:13:47;101732.0;;;11.08;53.37
61676;BME280;47574;52.090;5.244;2022-12-07T07:16:59;101732.0;;;11.14;53.28
61676;BME280;47574;52.090;5.244;2022-12-07T07:18:36;101733.0;;;11.16;53.23
61676;BME280;47574;52.090;5.244;2022-12-07T07:20:13;101727.0;;;11.23;53.01
61676;BME280;47574;52.090;5.244;2022-12-07T07:23:25;101730.0;;;11.29;52.98
61676;BME280;47574;52.090;5.244;2022-12-07T07:25:01;101731.0;;;11.38;52.83
61676;BME280;47574;52.090;5.244;2022-12-07T07:26:39;101735.0;;;11.45;52.33
61676;BME280;47574;52.090;5.244;2022-12-07T07:28:16;101732.0;;;11.25;52.58
61676;BME280;47574;52.090;5.244;2022-12-07T07:31:28;101731.0;;;10.94;52.66
61676;BME280;47574;52.090;5.244;2022-12-07T07:33:05;101732.0;;;11.06;52.79
61676;BME280;47574;52.090;5.244;2022-12-07T07:34:42;101735.0;;;11.2;52.26
61676;BME280;47574;52.090;5.244;2022-12-07T07:37:54;101732.0;;;10.95;52.7
61676;BME280;47574;52.090;5.244;2022-12-07T07:39:31;101733.0;;;10.81;53.26
61676;BME280;47574;52.090;5.244;2022-12-07T07:41:07;101734.0;;;10.78;53.36
61676;BME280;47574;52.090;5.244;2022-12-07T07:44:19;101734.0;;;10.44;53.58
61676;BME280;47574;52.090;5.244;2022-12-07T07:45:55;101737.0;;;10.54;53.59
61676;BME280;47574;52.090;5.244;2022-12-07T07:47:31;101738.0;;;10.43;53.76
61676;BME280;47574;52.090;5.244;2022-12-07T07:49:08;101740.0;;;10.77;53.16
61676;BME280;47574;52.090;5.244;2022-12-07T07:52:20;101741.0;;;10.92;52.7
61676;BME280;47574;52.090;5.244;2022-12-07T07:53:57;101740.0;;;10.76;52.91
61676;BME280;47574;52.090;5.244;2022-12-07T07:55:33;101742.0;;;10.56;53.1
61676;BME280;47574;52.090;5.244;2022-12-07T07:58:46;101742.0;;;10.81;52.9
61676;BME280;47574;52.090;5.244;2022-12-07T08:00:22;101738.0;;;10.75;53.02
61676;BME280;47574;52.090;5.244;2022-12-07T08:01:58;101734.0;;;10.58;53.17
61676;BME280;47574;52.090;5.244;2022-12-07T08:05:12;101733.0;;;10.78;52.86
61676;BME280;47574;52.090;5.244;2022-12-07T08:06:48;101735.0;;;10.88;52.78
61676;BME280;47574;52.090;5.244;2022-12-07T08:08:25;101740.0;;;10.72;52.83
61676;BME280;47574;52.090;5.244;2022-12-07T08:10:01;101743.0;;;10.59;53.36
61676;BME280;47574;52.090;5.244;2022-12-07T08:13:15;101743.0;;;10.93;52.44
61676;BME280;47574;52.090;5.244;2022-12-07T08:14:51;101740.0;;;10.88;52.52
61676;BME280;47574;52.090;5.244;2022-12-07T08:16:29;101741.0;;;10.85;52.87
61676;BME280;47574;52.090;5.244;2022-12-07T08:19:42;101743.0;;;11.02;52.83
61676;BME280;47574;52.090;5.244;2022-12-07T08:21:18;101745.0;;;11.16;52.62
61676;BME280;47574;52.090;5.244;2022-12-07T08:22:54;101753.0;;;10.96;53.07
61676;BME280;47574;52.090;5.244;2022-12-07T08:26:10;101759.0;;;11.16;52.67
61676;BME280;47574;52.090;5.244;2022-12-07T08:27:48;101763.0;;;11.04;52.75
61676;BME280;47574;52.090;5.244;2022-12-07T08:29:25;101773.0;;;10.94;52.79
61676;BME280;47574;52.090;5.244;2022-12-07T08:31:02;101768.0;;;11.07;52.32
61676;BME280;47574;52.090;5.244;2022-12-07T08:34:16;101773.0;;;11.06;52.69
61676;BME280;47574;52.090;5.244;2022-12-07T08:35:52;101768.0;;;11.12;52.97
61676;BME280;47574;52.090;5.244;2022-12-07T08:37:28;101768.0;;;11.04;53.43
61676;BME280;47574;52.090;5.244;2022-12-07T08:40:40;101761.0;;;11.27;53.45
61676;BME280;47574;52.090;5.244;2022-12-07T08:42:17;101756.0;;;11.61;52.95
61676;BME280;47574;52.090;5.244;2022-12-07T08:43:53;101761.0;;;11.78;52.72
61676;BME280;47574;52.090;5.244;2022-12-07T08:47:09;101766.0;;;11.49;53.12
61676;BME280;47574;52.090;5.244;2022-12-07T08:48:49;101765.0;;;11.61;53.19
61676;BME280;47574;52.090;5.244;2022-12-07T08:50:28;101759.0;;;11.68;52.88
61676;BME280;47574;52.090;5.244;2022-12-07T08:52:07;101758.0;;;11.57;53.29
61676;BME280;47574;52.090;5.244;2022-12-07T08:55:20;101758.0;;;11.83;53.19
61676;BME280;47574;52.090;5.244;2022-12-07T08:56:57;101758.0;;;11.63;53.28
61676;BME280;47574;52.090;5.244;2022-12-07T08:58:35;101758.0;;;11.76;53.73
61676;BME280;47574;52.090;5.244;2022-12-07T09:01:50;101757.0;;;11.82;53.04
61676;BME280;47574;52.090;5.244;2022-12-07T09:03:26;101759.0;;;11.7;52.83
61676;BME280;47574;52.090;5.244;2022-12-07T09:05:02;101757.0;;;12.07;52.68
61676;BME280;47574;52.090;5.244;2022-12-07T09:06:40;101765.0;;;11.95;52.96
61676;BME280;47574;52.090;5.244;2022-12-07T09:09:55;101768.0;;;12.04;53.16
61676;BME280;47574;52.090;5.244;2022-12-07T09:11:32;101761.0;;;12.16;53.07
61676;BME280;47574;52.090;5.244;2022-12-07T09:13:08;101767.0;;;12.06;53.22
61676;BME280;47574;52.090;5.244;2022-12-07T09:16:21;101759.0;;;12.16;52.82
61676;BME280;47574;52.090;5.244;2022-12-07T09:17:57;101761.0;;;12.11;52.56
61676;BME280;47574;52.090;5.244;2022-12-07T09:19:33;101758.0;;;12.18;52.58
61676;BME280;47574;52.090;5.244;2022-12-07T09:21:09;101750.0;;;12.15;52.52
61676;BME280;47574;52.090;5.244;2022-12-07T09:24:22;101750.0;;;12.08;51.95
61676;BME280;47574;52.090;5.244;2022-12-07T09:25:59;101751.0;;;12.22;52.13
61676;BME280;47574;52.090;5.244;2022-12-07T09:27:36;101747.0;;;12.41;51.65
61676;BME280;47574;52.090;5.244;2022-12-07T09:30:48;101744.0;;;12.27;51.79
61676;BME280;47574;52.090;5.244;2022-12-07T09:32:25;101745.0;;;12.23;51.67
61676;BME280;47574;52.090;5.244;2022-12-07T09:34:01;101751.0;;;12.35;51.78
61676;BME280;47574;52.090;5.244;2022-12-07T09:37:14;101750.0;;;12.26;52.05
61676;BME280;47574;52.090;5.244;2022-12-07T09:38:50;101751.0;;;12.3;52.3
61676;BME280;47574;52.090;5.244;2022-12-07T09:40:27;101748.0;;;12.23;52.52
61676;BME280;47574;52.090;5.244;2022-12-07T09:42:05;101751.0;;;12.35;52.3
61676;BME280;47574;52.090;5.244;2022-12-07T09:45:23;101750.0;;;12.27;52.9
61676;BME280;47574;52.090;5.244;2022-12-07T09:47:00;101753.0;;;12.41;52.7
61676;BME280;47574;52.090;5.244;2022-12-07T09:48:37;101752.0;;;12.48;52.68
61676;BME280;47574;52.090;5.244;2022-12-07T09:52:04;101753.0;;;12.49;52.44
61676;BME280;47574;52.090;5.244;2022-12-07T09:53:55;101751.0;;;12.52;52.6
61676;BME280;47574;52.090;5.244;2022-12-07T09:55:35;101751.0;;;12.5;52.67
61676;BME280;47574;52.090;5.244;2022-12-07T09:57:22;101755.0;;;12.49;52.55
61676;BME280;47574;52.090;5.244;2022-12-07T09:59:12;101750.0;;;12.45;52.2
61676;BME280;47574;52.090;5.244;2022-12-07T10:02:35;101753.0;;;12.45;51.64
61676;BME280;47574;52.090;5.244;2022-12-07T10:04:16;101749.0;;;12.38;51.98
61676;BME280;47574;52.090;5.244;2022-12-07T10:05:54;101746.0;;;12.67;51.41
61676;BME280;47574;52.090;5.244;2022-12-07T10:07:31;101743.0;;;12.49;51.42
61676;BME280;47574;52.090;5.244;2022-12-07T10:10:50;101738.0;;;12.64;51.49
61676;BME280;47574;52.090;5.244;2022-12-07T10:12:28;101741.0;;;12.58;51.38
61676;BME280;47574;52.090;5.244;2022-12-07T10:14:11;101738.0;;;12.86;51.05
61676;BME280;47574;52.090;5.244;2022-12-07T10:15:51;101728.0;;;12.77;51.38
61676;BME280;47574;52.090;5.244;2022-12-07T10:19:22;101727.0;;;13.06;51.15
61676;BME280;47574;52.090;5.244;2022-12-07T10:21:02;101722.0;;;12.83;51.33
61676;BME280;47574;52.090;5.244;2022-12-07T10:24:30;101719.0;;;13.12;51.42
61676;BME280;47574;52.090;5.244;2022-12-07T10:26:48;101718.0;;;12.93;50.68
61676;BME280;47574;52.090;5.244;2022-12-07T10:28:34;101714.0;;;13.0;50.37
61676;BME280;47574;52.090;5.244;2022-12-07T10:30:14;101715.0;;;12.71;49.5
61676;BME280;47574;52.090;5.244;2022-12-07T10:33:48;101719.0;;;12.88;50.05
61676;BME280;47574;52.090;5.244;2022-12-07T10:35:27;101713.0;;;12.88;49.95
61676;BME280;47574;52.090;5.244;2022-12-07T10:37:20;101713.0;;;13.08;50.72
61676;BME280;47574;52.090;5.244;2022-12-07T10:39:00;101710.0;;;12.97;50.66
61676;BME280;47574;52.090;5.244;2022-12-07T10:42:18;101703.0;;;13.26;49.95
61676;BME280;47574;52.090;5.244;2022-12-07T10:43:56;101701.0;;;13.23;50.64
61676;BME280;47574;52.090;5.244;2022-12-07T10:45:35;101705.0;;;13.34;50.27
61676;BME280;47574;52.090;5.244;2022-12-07T10:47:25;101696.0;;;13.26;49.75
61676;BME280;47574;52.090;5.244;2022-12-07T10:50:41;101692.0;;;13.61;48.41
61676;BME280;47574;52.090;5.244;2022-12-07T10:52:34;101689.0;;;13.66;49.62
61676;BME280;47574;52.090;5.244;2022-12-07T10:54:27;101692.0;;;13.45;49.36
61676;BME280;47574;52.090;5.244;2022-12-07T10:56:26;101687.0;;;13.67;48.14
61676;BME280;47574;52.090;5.244;2022-12-07T10:58:31;101687.0;;;13.8;47.83
61676;BME280;47574;52.090;5.244;2022-12-07T11:00:16;101684.0;;;13.65;48.75
61676;BME280;47574;52.090;5.244;2022-12-07T11:02:00;101690.0;;;13.65;48.18
61676;BME280;47574;52.090;5.244;2022-12-07T11:04:01;101691.0;;;13.65;48.03
61676;BME280;47574;52.090;5.244;2022-12-07T11:05:57;101700.0;;;13.67;47.74
61676;BME280;47574;52.090;5.244;2022-12-07T11:09:50;101696.0;;;13.59;47.79
61676;BME280;47574;52.090;5.244;2022-12-07T11:11:47;101692.0;;;13.58;48.06
61676;BME280;47574;52.090;5.244;2022-12-07T11:13:36;101680.0;;;13.77;48.98